Licenciado Manuel Crescencio Rejon Int Airport
MMMD : now visible

Airfield :











YOU CAN JOIN US ON...

 
LOGIN :

Register | Disclaimer

   EN    FR    IT 

 









Legend :    VFR   Marginal VFR   IFR   Intensive IFR   Very Intensive IFR
Visi :
Ceiling :
>= 8 km
>= 3000ft
5 to 8 km
1000 to 3000 ft
1500m to 5 km
500 to 1000 ft
800 to 1500m
200 to 500 ft
< 800m
< 200 ft
Symbols :   Thunderstorms  Fog  Heavy snow  Heavy precipitations  Wind > 20 kt







- Airport Elevation : 38 ft
- IATA code : MID


MMMD - Licenciado Manuel Crescencio Rejon Int

CURRENT METAR :
  • 180244Z 05010KT 7SM SCT300 28/25 A2997 RMK SLP146 53020 917 8/008

EXPIRED METARs :
  • 180144Z 05007G18KT 7SM SKC 28/24 A2994
  • 180047Z 03008KT 7SM SKC 29/25 A2992

TAF TAF MMMD
Valid from the 18 at 00:00 until the 19 at 06:00 UTC


172325Z 1800/1906 04008KT P6SM SCT025 OVC220 TX34/1819Z TN25/1810Z
BECMG 1802/1803 09005KT SCT020
FM181800 04012KT P6SM SCT020
BECMG 1902/1903 08005KT
No reported NOTAMs for that airfield.



MET'MAP, your aeronautical weather chart ! - Copyright ORBIFLY December 2007 - Disclaimer

ORBIFLY MET'MAP TEAM :

Programming & Development : Alexandra Zaïnal
Concept & Development : Baudouin d'Aumeries
Co-Development & Prog : Marc-Olivier Méhu
Technical & hardware support : Manuel Goepfert

Contact : metmap@orbifly.com




SOURCES & CREDITS :

   NOAA       Earth
Advisory